Time;durP1;ratioP1;P1;durP2;ratioP2;P2;SDS_P1;SDS_P2;PMS_P1;PMS_P2;Temp;Humidity;BMP_temperature;BMP_pressure;BME280_temperature;BME280_humidity;BME280_pressure;Samples;Min_cycle;Max_cycle;Signal;HPM_P1;HPM_P2
2022/03/21 00:00:52;;;;;;;6.38;4.68;;;21.90;33.60;;;;;;5048106;28;20036;-60
2022/03/21 00:03:24;;;;;;;6.50;4.53;;;21.90;33.60;;;;;;5046620;28;20076;-60
2022/03/21 00:05:52;;;;;;;7.10;5.13;;;21.90;33.60;;;;;;5046390;28;20183;-60
2022/03/21 00:08:22;;;;;;;5.72;4.82;;;21.80;33.60;;;;;;5045787;28;20060;-61
2022/03/21 00:10:50;;;;;;;5.05;4.45;;;21.80;33.60;;;;;;5046072;28;20044;-60
2022/03/21 00:13:18;;;;;;;5.53;4.28;;;21.80;33.60;;;;;;5046248;28;20036;-60
2022/03/21 00:15:46;;;;;;;5.40;4.03;;;21.80;33.60;;;;;;5047680;28;20037;-60
2022/03/21 00:18:14;;;;;;;6.57;4.57;;;21.80;33.60;;;;;;5045635;28;20139;-62
2022/03/21 00:20:43;;;;;;;6.38;4.68;;;21.80;33.70;;;;;;5043685;28;20048;-61
2022/03/21 00:23:11;;;;;;;7.35;5.20;;;21.80;33.70;;;;;;5046020;28;20048;-60
2022/03/21 00:25:39;;;;;;;4.63;3.80;;;21.80;33.70;;;;;;5046032;28;20116;-60
2022/03/21 00:28:07;;;;;;;4.45;3.60;;;21.80;33.70;;;;;;5046774;28;20037;-60
2022/03/21 00:30:35;;;;;;;5.32;3.60;;;21.80;33.70;;;;;;5032843;28;20569;-61
2022/03/21 00:33:03;;;;;;;4.60;4.00;;;21.80;33.70;;;;;;5045757;28;20628;-60
2022/03/21 00:35:31;;;;;;;5.97;4.55;;;21.80;33.70;;;;;;5029163;28;20037;-60
2022/03/21 00:38:00;;;;;;;4.55;3.72;;;21.80;33.70;;;;;;5045614;28;20459;-60
2022/03/21 00:40:30;;;;;;;4.47;4.05;;;21.80;33.70;;;;;;5045273;28;20562;-63
2022/03/21 00:42:58;;;;;;;4.20;3.72;;;21.80;33.80;;;;;;5046163;28;20053;-60
2022/03/21 00:45:26;;;;;;;4.05;3.55;;;21.70;33.70;;;;;;5047058;28;20135;-61
2022/03/21 00:47:54;;;;;;;4.53;4.10;;;21.70;33.70;;;;;;5045477;28;20099;-59
2022/03/21 00:50:23;;;;;;;6.35;3.67;;;21.70;33.80;;;;;;5044958;28;20532;-61
2022/03/21 00:52:53;;;;;;;3.97;3.25;;;21.70;33.80;;;;;;5045312;28;20041;-60
2022/03/21 00:55:24;;;;;;;5.25;3.63;;;21.70;33.80;;;;;;5044663;28;20033;-61
2022/03/21 00:57:51;;;;;;;4.18;3.80;;;21.70;33.90;;;;;;5047287;28;20124;-61
2022/03/21 01:00:21;;;;;;;3.95;3.35;;;21.70;33.90;;;;;;5046206;28;20146;-61
2022/03/21 01:02:48;;;;;;;4.03;3.25;;;21.70;34.50;;;;;;5045669;28;20037;-60
2022/03/21 01:05:16;;;;;;;4.32;3.30;;;21.60;33.80;;;;;;5045799;28;20044;-62
2022/03/21 01:07:44;;;;;;;4.70;3.58;;;21.60;33.90;;;;;;5045357;28;20438;-60
2022/03/21 01:10:13;;;;;;;5.28;3.20;;;21.60;33.90;;;;;;5045281;28;20037;-60
2022/03/21 01:12:42;;;;;;;3.58;3.22;;;21.60;33.90;;;;;;5046986;28;20498;-60
2022/03/21 01:15:13;;;;;;;4.60;3.47;;;21.60;33.90;;;;;;5045784;28;20041;-60
2022/03/21 01:17:40;;;;;;;4.03;3.28;;;21.60;33.90;;;;;;5044389;28;20410;-60
2022/03/21 01:20:08;;;;;;;6.53;4.15;;;21.60;33.90;;;;;;5042515;28;20047;-60
2022/03/21 01:22:35;;;;;;;3.63;3.30;;;21.60;33.90;;;;;;5049484;28;20037;-59
2022/03/21 01:25:02;;;;;;;4.90;3.67;;;21.60;33.90;;;;;;5049007;28;20048;-59
2022/03/21 01:27:31;;;;;;;4.35;3.35;;;21.50;33.90;;;;;;5050436;28;20054;-60
2022/03/21 01:30:00;;;;;;;5.03;3.58;;;21.50;33.90;;;;;;5049328;28;20503;-61
2022/03/21 01:32:27;;;;;;;3.78;3.42;;;21.50;34.00;;;;;;5049217;28;20126;-59
2022/03/21 01:34:54;;;;;;;5.28;3.63;;;21.50;34.00;;;;;;5049101;28;20047;-60
2022/03/21 01:37:21;;;;;;;3.55;2.50;;;21.50;34.00;;;;;;5048947;28;20045;-60
2022/03/21 01:39:48;;;;;;;4.15;3.08;;;21.50;34.00;;;;;;5049919;28;20154;-60
2022/03/21 01:42:15;;;;;;;4.30;3.10;;;21.50;34.00;;;;;;5048541;28;20053;-60
2022/03/21 01:44:42;;;;;;;5.20;4.50;;;21.50;34.00;;;;;;5048829;28;20083;-60
2022/03/21 01:47:11;;;;;;;3.75;3.45;;;21.50;34.10;;;;;;5048755;28;20588;-60
2022/03/21 01:49:38;;;;;;;2.90;2.55;;;21.50;34.70;;;;;;5048846;28;20284;-60
2022/03/21 01:52:06;;;;;;;3.95;3.65;;;21.50;34.10;;;;;;5048982;28;20068;-60
2022/03/21 01:57:17;;;;;;;2.88;2.55;;;21.50;34.20;;;;;;5048834;28;20037;-60
2022/03/21 01:59:45;;;;;;;4.20;3.80;;;21.40;34.10;;;;;;5048430;28;20036;-60
2022/03/21 02:02:13;;;;;;;3.58;3.35;;;21.40;34.10;;;;;;5048898;28;20410;-60
2022/03/21 02:04:40;;;;;;;3.67;3.38;;;21.40;34.10;;;;;;5048745;28;20037;-60
2022/03/21 02:07:07;;;;;;;4.68;4.28;;;21.40;34.20;;;;;;5048007;28;20482;-59
2022/03/21 02:09:35;;;;;;;4.18;3.50;;;21.40;34.20;;;;;;5050101;28;20048;-60
2022/03/21 02:12:02;;;;;;;3.55;2.85;;;21.40;34.20;;;;;;5048423;28;20045;-60
2022/03/21 02:14:31;;;;;;;3.38;3.08;;;21.40;34.20;;;;;;5048276;28;20047;-60
2022/03/21 02:16:57;;;;;;;5.07;3.33;;;21.40;34.20;;;;;;5048497;28;20037;-60
2022/03/21 02:19:30;;;;;;;5.13;3.75;;;21.40;34.20;;;;;;5048265;28;20773;-60
2022/03/21 02:22:23;;;;;;;3.13;2.83;;;21.40;34.20;;;;;;5048588;28;20732;-59
2022/03/21 02:25:02;;;;;;;2.95;2.65;;;21.40;34.20;;;;;;5049867;28;20495;-60
2022/03/21 02:27:35;;;;;;;4.53;3.58;;;21.30;34.20;;;;;;5047727;28;20037;-60
2022/03/21 02:30:04;;;;;;;3.83;3.42;;;21.30;34.30;;;;;;5048575;28;20525;-60
2022/03/21 02:32:32;;;;;;;4.03;3.63;;;21.30;34.30;;;;;;5042142;28;20047;-60
2022/03/21 02:35:00;;;;;;;2.88;2.67;;;21.30;34.30;;;;;;5048216;28;20037;-60
2022/03/21 02:37:27;;;;;;;4.05;3.33;;;21.30;34.30;;;;;;5047585;28;20041;-61
2022/03/21 02:39:55;;;;;;;4.63;3.75;;;21.30;34.30;;;;;;5048456;28;20529;-59
2022/03/21 02:42:22;;;;;;;3.38;3.08;;;21.30;34.30;;;;;;5048820;28;20056;-60
2022/03/21 02:44:51;;;;;;;3.25;2.85;;;21.30;34.40;;;;;;5033583;28;20168;-60
2022/03/21 02:47:18;;;;;;;3.22;2.92;;;21.30;34.30;;;;;;5047769;28;20035;-60
2022/03/21 02:49:46;;;;;;;3.97;3.58;;;21.30;34.30;;;;;;5047467;28;20558;-59
2022/03/21 02:52:15;;;;;;;4.45;4.05;;;21.30;34.40;;;;;;5047369;28;20049;-59
2022/03/21 02:54:42;;;;;;;4.50;3.47;;;21.30;34.40;;;;;;5049047;28;20127;-60
2022/03/21 02:57:09;;;;;;;4.60;3.20;;;21.30;34.40;;;;;;5047689;28;20055;-60
2022/03/21 02:59:36;;;;;;;3.97;3.13;;;21.30;34.40;;;;;;5048043;28;20570;-60
2022/03/21 03:02:07;;;;;;;4.10;3.78;;;21.30;34.40;;;;;;5047862;28;20414;-60
2022/03/21 03:04:34;;;;;;;3.75;3.45;;;21.30;34.50;;;;;;5047495;28;20396;-60
2022/03/21 03:07:01;;;;;;;4.63;3.45;;;21.30;34.50;;;;;;5047206;28;20044;-59
2022/03/21 03:09:28;;;;;;;3.20;2.85;;;21.20;34.40;;;;;;5048566;28;20045;-59
2022/03/21 03:11:55;;;;;;;4.35;3.58;;;21.20;34.50;;;;;;5047179;28;20475;-60
2022/03/21 03:14:22;;;;;;;3.55;3.03;;;21.20;34.50;;;;;;5046754;28;20048;-59
2022/03/21 03:16:49;;;;;;;4.88;3.00;;;21.20;34.50;;;;;;5047195;28;20037;-60
2022/03/21 03:19:18;;;;;;;3.53;3.22;;;21.20;34.50;;;;;;5047160;28;20490;-60
2022/03/21 03:21:47;;;;;;;6.85;3.30;;;21.20;34.50;;;;;;5066944;28;20049;-60
2022/03/21 03:24:15;;;;;;;3.03;2.85;;;21.20;34.50;;;;;;5047308;28;20148;-60
2022/03/21 03:26:42;;;;;;;2.92;2.72;;;21.20;34.50;;;;;;5047512;28;20033;-60
2022/03/21 03:29:09;;;;;;;3.85;2.95;;;21.20;34.50;;;;;;5047200;28;20044;-60
2022/03/21 03:31:36;;;;;;;3.58;2.40;;;21.20;34.50;;;;;;5046881;28;20039;-59
2022/03/21 03:34:04;;;;;;;3.10;2.60;;;21.20;34.50;;;;;;5046869;28;20052;-59
2022/03/21 03:36:33;;;;;;;3.47;3.17;;;21.20;34.60;;;;;;5022703;28;20042;-60
2022/03/21 03:39:00;;;;;;;4.65;3.53;;;21.20;34.60;;;;;;5044710;28;20045;-59
2022/03/21 03:44:47;;;;;;;3.05;2.75;;;21.20;34.60;;;;;;4959785;28;20074;-62
2022/03/21 03:47:16;;;;;;;4.57;3.35;;;21.20;34.60;;;;;;4965008;28;20055;-61
2022/03/21 03:49:43;;;;;;;3.95;2.65;;;21.20;34.70;;;;;;4957302;28;20038;-59
2022/03/21 03:52:12;;;;;;;2.80;2.60;;;21.20;34.60;;;;;;4961573;28;20592;-61
2022/03/21 03:54:39;;;;;;;3.90;2.75;;;21.20;34.60;;;;;;4951944;28;20039;-62
2022/03/21 03:57:06;;;;;;;3.53;3.20;;;21.20;34.60;;;;;;4946424;28;20047;-61
2022/03/21 03:59:33;;;;;;;3.17;2.97;;;21.20;34.60;;;;;;4957663;28;20135;-60
2022/03/21 04:02:00;;;;;;;5.07;3.40;;;21.20;34.60;;;;;;4952535;28;20516;-62
2022/03/21 04:04:28;;;;;;;3.60;3.30;;;21.20;34.70;;;;;;4959051;28;20113;-61
2022/03/21 04:06:55;;;;;;;3.85;2.25;;;21.20;34.70;;;;;;4963428;28;20593;-61
2022/03/21 04:09:23;;;;;;;4.45;3.80;;;21.20;34.70;;;;;;4955556;28;20412;-61
2022/03/21 04:11:51;;;;;;;3.83;3.15;;;21.20;34.70;;;;;;4957084;28;20576;-62
2022/03/21 04:14:18;;;;;;;2.92;2.78;;;21.20;34.70;;;;;;4960805;28;20045;-61
2022/03/21 04:16:45;;;;;;;4.15;3.67;;;21.20;34.70;;;;;;4961317;28;20547;-62
2022/03/21 04:19:14;;;;;;;3.80;3.42;;;21.20;34.70;;;;;;4962851;28;20102;-62
2022/03/21 04:21:42;;;;;;;3.75;3.45;;;21.20;34.70;;;;;;4963956;28;20046;-61
2022/03/21 04:24:09;;;;;;;3.90;2.92;;;21.20;34.70;;;;;;4963101;28;20098;-61
2022/03/21 04:26:37;;;;;;;4.72;3.28;;;21.20;34.70;;;;;;4962718;28;20050;-62
2022/03/21 04:29:05;;;;;;;3.92;3.33;;;21.20;34.70;;;;;;4962470;28;20053;-61
2022/03/21 04:31:33;;;;;;;2.88;2.20;;;21.20;34.70;;;;;;4961431;28;20137;-62
2022/03/21 04:34:00;;;;;;;3.85;3.38;;;21.20;34.70;;;;;;4960662;28;20055;-62
2022/03/21 04:36:29;;;;;;;4.40;3.78;;;21.20;34.70;;;;;;4962511;28;20043;-61
2022/03/21 04:38:56;;;;;;;4.65;3.35;;;21.20;35.30;;;;;;4964389;28;20077;-61
2022/03/21 04:41:23;;;;;;;3.30;2.97;;;21.20;34.70;;;;;;4960852;28;20051;-63
2022/03/21 04:43:52;;;;;;;3.22;2.92;;;21.20;34.70;;;;;;4959593;28;20133;-61
2022/03/21 04:46:19;;;;;;;3.90;3.30;;;21.20;34.80;;;;;;4959341;28;20066;-60
2022/03/21 04:48:47;;;;;;;2.95;2.75;;;21.20;34.80;;;;;;4954614;28;20468;-60
2022/03/21 04:51:14;;;;;;;3.30;2.97;;;21.20;34.80;;;;;;4951083;28;20133;-61
2022/03/21 04:53:41;;;;;;;3.75;3.45;;;21.20;34.80;;;;;;4957824;28;20406;-61
2022/03/21 04:56:09;;;;;;;2.92;2.70;;;21.20;34.80;;;;;;4964127;28;20054;-60
2022/03/21 04:58:36;;;;;;;5.75;3.50;;;21.20;34.80;;;;;;4960616;28;20046;-59
2022/03/21 05:01:04;;;;;;;4.22;3.92;;;21.20;34.80;;;;;;4951116;28;20102;-60
2022/03/21 05:03:32;;;;;;;3.47;3.17;;;21.20;34.80;;;;;;4953037;28;20050;-61
2022/03/21 05:05:59;;;;;;;3.25;2.85;;;21.20;34.80;;;;;;4953109;28;20083;-60
2022/03/21 05:08:26;;;;;;;3.40;3.10;;;21.20;34.80;;;;;;4952356;28;20094;-60
2022/03/21 05:10:53;;;;;;;3.47;3.17;;;21.20;34.80;;;;;;4957196;28;20047;-60
2022/03/21 05:13:20;;;;;;;3.92;3.53;;;21.20;34.90;;;;;;4953492;28;20041;-61
2022/03/21 05:15:47;;;;;;;3.30;3.05;;;21.20;34.80;;;;;;4950225;28;20043;-61
2022/03/21 05:18:16;;;;;;;4.80;3.78;;;21.20;34.90;;;;;;4948987;28;20043;-61
2022/03/21 05:20:44;;;;;;;2.85;2.65;;;21.20;35.50;;;;;;4959361;28;20505;-61
2022/03/21 05:31:27;;;;;;;;;;;21.20;34.90;;;;;;4954497;28;20465;-60
2022/03/21 05:36:41;;;;;;;3.70;3.30;;;21.10;35.00;;;;;;4963194;28;20042;-60
2022/03/21 05:39:08;;;;;;;3.78;2.95;;;21.10;35.00;;;;;;4965405;28;20043;-60
2022/03/21 05:41:35;;;;;;;3.08;2.88;;;21.10;35.00;;;;;;4961424;28;20457;-60
2022/03/21 05:44:03;;;;;;;3.83;3.22;;;21.10;35.00;;;;;;4956948;28;20047;-61
2022/03/21 05:46:30;;;;;;;3.35;3.05;;;21.10;35.00;;;;;;4948765;28;20580;-60
2022/03/21 05:49:01;;;;;;;2.80;2.55;;;21.10;35.00;;;;;;4947741;28;20036;-61
2022/03/21 05:51:30;;;;;;;2.67;2.45;;;21.10;35.00;;;;;;4952414;28;20134;-61
2022/03/21 05:53:59;;;;;;;3.63;3.28;;;21.10;35.00;;;;;;4955816;28;20521;-61
2022/03/21 05:56:27;;;;;;;3.60;3.35;;;21.20;35.10;;;;;;4963383;28;20066;-62
2022/03/21 05:58:56;;;;;;;3.22;2.92;;;21.10;35.00;;;;;;4958222;28;20105;-61
2022/03/21 06:01:24;;;;;;;4.53;3.67;;;21.10;35.10;;;;;;4954598;28;20035;-60
2022/03/21 06:03:53;;;;;;;3.85;3.55;;;21.10;35.10;;;;;;4956228;28;20066;-61
2022/03/21 06:06:22;;;;;;;2.92;2.72;;;21.10;35.00;;;;;;4965848;28;20410;-61
2022/03/21 06:08:49;;;;;;;3.72;3.38;;;21.10;35.00;;;;;;4953398;28;20051;-60
2022/03/21 06:11:17;;;;;;;2.90;2.67;;;21.10;35.00;;;;;;4956577;28;20520;-62
2022/03/21 06:13:44;;;;;;;3.75;2.88;;;21.10;35.00;;;;;;4953984;28;20090;-60
2022/03/21 06:16:14;;;;;;;3.33;2.97;;;21.10;35.00;;;;;;4953913;28;20531;-61
2022/03/21 06:18:41;;;;;;;3.28;2.88;;;21.10;35.10;;;;;;4957065;28;20043;-61
2022/03/21 06:21:10;;;;;;;4.15;3.70;;;21.10;35.10;;;;;;4968420;28;20436;-61
2022/03/21 06:23:38;;;;;;;3.13;2.83;;;21.10;35.10;;;;;;4958160;28;20425;-61
2022/03/21 06:26:07;;;;;;;3.53;3.22;;;21.10;35.10;;;;;;4958526;28;20058;-61
2022/03/21 06:28:36;;;;;;;3.55;3.05;;;21.10;35.20;;;;;;4954398;28;20389;-61
2022/03/21 06:31:04;;;;;;;3.15;2.85;;;21.10;35.20;;;;;;4964329;28;20047;-61
2022/03/21 06:33:32;;;;;;;4.88;3.45;;;21.10;35.20;;;;;;4953660;28;20141;-61
2022/03/21 06:36:00;;;;;;;2.88;2.40;;;21.10;35.20;;;;;;4953820;28;20589;-61
2022/03/21 06:38:28;;;;;;;4.07;3.65;;;21.10;35.20;;;;;;4965808;28;20412;-61
2022/03/21 06:40:57;;;;;;;4.72;3.53;;;21.10;35.20;;;;;;4959088;28;20043;-61
2022/03/21 06:43:24;;;;;;;4.82;3.15;;;21.10;35.20;;;;;;4958309;28;20490;-61
2022/03/21 06:45:52;;;;;;;4.40;3.30;;;21.10;35.20;;;;;;4953039;28;20418;-61
2022/03/21 06:48:21;;;;;;;4.50;3.10;;;21.10;35.20;;;;;;4966030;28;20612;-61
2022/03/21 06:50:49;;;;;;;6.25;3.20;;;21.00;35.20;;;;;;4957982;28;20043;-61
2022/03/21 06:53:17;;;;;;;4.90;3.67;;;21.10;35.30;;;;;;4958294;28;20047;-60
2022/03/21 06:55:44;;;;;;;3.72;3.13;;;21.10;35.30;;;;;;4957320;28;20039;-60
2022/03/21 06:58:14;;;;;;;4.28;3.88;;;21.10;35.30;;;;;;4951435;28;20048;-61
2022/03/21 07:00:41;;;;;;;3.13;2.90;;;21.10;35.40;;;;;;4957239;28;20061;-61
2022/03/21 07:03:08;;;;;;;4.63;3.78;;;21.10;35.40;;;;;;4958503;28;20055;-60
2022/03/21 07:05:36;;;;;;;5.30;3.15;;;21.10;35.40;;;;;;4943175;29;20494;-60
2022/03/21 07:08:04;;;;;;;3.95;3.65;;;21.10;35.40;;;;;;4958429;28;20106;-60
2022/03/21 07:10:32;;;;;;;3.17;2.95;;;21.10;35.40;;;;;;4960149;28;20041;-60
2022/03/21 07:13:00;;;;;;;3.72;3.42;;;21.10;35.40;;;;;;4941079;28;20051;-60
2022/03/21 07:15:29;;;;;;;3.85;2.97;;;21.10;35.40;;;;;;4959162;28;20044;-60
2022/03/21 07:17:56;;;;;;;3.28;2.90;;;21.10;35.40;;;;;;4959620;28;20394;-60
2022/03/21 07:20:25;;;;;;;4.15;3.75;;;21.10;35.40;;;;;;4962304;28;20047;-60
2022/03/21 07:22:53;;;;;;;3.55;3.25;;;21.10;35.40;;;;;;4960433;28;20094;-61
2022/03/21 07:25:20;;;;;;;3.20;2.88;;;21.10;35.40;;;;;;4954247;28;20527;-60
2022/03/21 07:27:47;;;;;;;5.03;3.33;;;21.10;35.40;;;;;;4954279;28;20508;-62
2022/03/21 07:30:16;;;;;;;3.65;3.10;;;21.10;35.40;;;;;;4965956;28;20625;-60
2022/03/21 07:32:45;;;;;;;4.22;4.00;;;21.10;35.40;;;;;;4958920;28;20047;-60
2022/03/21 07:35:14;;;;;;;4.30;3.13;;;21.10;35.40;;;;;;4959533;28;20125;-60
2022/03/21 07:37:42;;;;;;;2.72;2.53;;;21.10;35.40;;;;;;4955601;28;20501;-60
2022/03/21 07:40:12;;;;;;;4.25;3.00;;;21.10;35.40;;;;;;4946297;28;20052;-61
2022/03/21 07:42:39;;;;;;;3.65;2.47;;;21.20;35.40;;;;;;4954947;28;20054;-60
2022/03/21 07:47:55;;;;;;;2.70;2.50;;;21.20;35.40;;;;;;4953550;28;20395;-60
2022/03/21 07:50:24;;;;;;;2.55;2.40;;;21.20;35.40;;;;;;4961586;28;20432;-60
2022/03/21 07:52:51;;;;;;;3.75;3.45;;;21.20;35.40;;;;;;4961054;28;20038;-61
2022/03/21 07:55:19;;;;;;;3.53;3.33;;;21.20;35.30;;;;;;4953923;28;20125;-61
2022/03/21 07:57:46;;;;;;;3.05;2.67;;;21.30;35.40;;;;;;4963926;28;20035;-60
2022/03/21 08:00:16;;;;;;;5.28;3.13;;;21.30;35.30;;;;;;4954832;28;20046;-60
2022/03/21 08:02:43;;;;;;;3.65;3.28;;;21.30;35.30;;;;;;4954248;28;20130;-60
2022/03/21 08:05:13;;;;;;;3.03;2.72;;;21.40;35.30;;;;;;4960604;28;20488;-60
2022/03/21 08:07:41;;;;;;;2.70;2.47;;;21.40;35.30;;;;;;4955098;28;20074;-60
2022/03/21 08:10:09;;;;;;;2.78;2.58;;;21.40;35.20;;;;;;4958738;28;20070;-60
2022/03/21 08:12:37;;;;;;;3.17;2.30;;;21.50;35.20;;;;;;4958522;28;20047;-61
2022/03/21 08:15:06;;;;;;;4.47;3.60;;;21.50;35.20;;;;;;4957808;28;20720;-60
2022/03/21 08:17:36;;;;;;;2.90;2.70;;;21.50;35.10;;;;;;4954051;28;20208;-61
2022/03/21 08:20:04;;;;;;;2.70;2.50;;;21.50;35.10;;;;;;4960342;28;20038;-61
2022/03/21 08:22:33;;;;;;;4.20;2.83;;;21.50;35.10;;;;;;4956199;28;20051;-60
2022/03/21 08:25:00;;;;;;;4.45;2.67;;;21.60;35.10;;;;;;4954587;28;20062;-61
2022/03/21 08:27:32;;;;;;;2.60;2.40;;;21.60;35.10;;;;;;4962535;28;20043;-61
2022/03/21 08:30:00;;;;;;;2.60;2.40;;;21.60;35.00;;;;;;4963162;28;20047;-60
2022/03/21 08:32:27;;;;;;;2.35;2.05;;;21.60;35.00;;;;;;4958933;28;20071;-61
2022/03/21 08:34:54;;;;;;;3.92;2.92;;;21.60;34.90;;;;;;4962793;28;20049;-61
2022/03/21 08:37:25;;;;;;;5.80;2.90;;;21.60;35.00;;;;;;4960002;28;20048;-63
2022/03/21 08:39:53;;;;;;;3.35;2.20;;;21.70;35.00;;;;;;4953634;28;20043;-61
2022/03/21 08:42:21;;;;;;;2.65;2.30;;;21.70;35.00;;;;;;4954525;28;20120;-60
2022/03/21 08:44:49;;;;;;;4.70;3.15;;;21.70;35.00;;;;;;4964830;28;20166;-61
2022/03/21 08:47:16;;;;;;;3.97;3.22;;;21.70;35.00;;;;;;4960892;28;20045;-61
2022/03/21 08:49:44;;;;;;;5.35;3.95;;;21.70;35.00;;;;;;4940995;29;20054;-61
2022/03/21 08:52:13;;;;;;;3.90;2.88;;;21.70;34.90;;;;;;4957784;28;20126;-61
2022/03/21 08:54:41;;;;;;;6.03;2.83;;;21.70;34.90;;;;;;4956136;28;20057;-61
2022/03/21 08:57:10;;;;;;;5.22;4.03;;;21.80;34.90;;;;;;4964314;28;20057;-60
2022/03/21 08:59:38;;;;;;;6.38;3.50;;;21.80;34.90;;;;;;4955488;28;20545;-60
2022/03/21 09:02:05;;;;;;;3.55;2.35;;;21.80;34.80;;;;;;4963153;28;20155;-60
2022/03/21 09:04:33;;;;;;;7.07;3.42;;;21.80;35.50;;;;;;4956181;28;20493;-60
2022/03/21 09:07:01;;;;;;;4.82;3.50;;;21.80;34.80;;;;;;4956493;28;20077;-61
2022/03/21 09:09:28;;;;;;;5.40;3.33;;;21.80;34.80;;;;;;4959403;28;20054;-60
2022/03/21 09:11:55;;;;;;;7.28;3.95;;;21.90;34.80;;;;;;4960003;28;20450;-60
2022/03/21 09:14:24;;;;;;;5.32;3.45;;;21.90;34.80;;;;;;4951843;28;20118;-60
2022/03/21 09:16:52;;;;;;;7.03;4.03;;;21.90;34.70;;;;;;4956293;28;20046;-60
2022/03/21 09:19:20;;;;;;;5.78;3.95;;;21.90;34.70;;;;;;4948924;28;20047;-61
2022/03/21 09:21:48;;;;;;;8.05;3.58;;;21.90;34.70;;;;;;4951303;28;20078;-62
2022/03/21 09:24:16;;;;;;;6.68;4.00;;;21.90;34.70;;;;;;4964073;28;20580;-61
2022/03/21 09:26:43;;;;;;;7.72;3.50;;;21.90;34.60;;;;;;4957359;28;20210;-61
2022/03/21 09:29:11;;;;;;;5.57;3.53;;;21.90;34.60;;;;;;4954079;28;20039;-62
2022/03/21 09:31:40;;;;;;;5.55;3.35;;;22.00;34.70;;;;;;4955414;28;20150;-61
2022/03/21 09:34:08;;;;;;;8.48;3.00;;;22.00;34.60;;;;;;4926572;28;20555;-61
2022/03/21 09:36:35;;;;;;;6.18;3.15;;;22.00;34.70;;;;;;4961347;28;20082;-61
2022/03/21 09:39:03;;;;;;;7.25;3.50;;;22.00;34.60;;;;;;4968929;28;20038;-60
2022/03/21 09:41:32;;;;;;;4.95;3.47;;;22.00;34.60;;;;;;4962448;28;20047;-60
2022/03/21 09:44:03;;;;;;;7.13;3.58;;;22.10;34.60;;;;;;4961335;28;20098;-60
2022/03/21 09:46:30;;;;;;;5.03;3.35;;;22.10;34.60;;;;;;4957092;28;20046;-60
2022/03/21 09:48:59;;;;;;;4.05;2.78;;;22.10;34.60;;;;;;4967009;28;20054;-60
2022/03/21 09:51:28;;;;;;;3.83;2.60;;;22.10;35.10;;;;;;4952091;28;20215;-60
2022/03/21 09:53:56;;;;;;;4.63;3.55;;;22.10;34.50;;;;;;4970742;28;20042;-61
2022/03/21 09:56:24;;;;;;;5.57;3.00;;;22.10;34.50;;;;;;4954704;28;20051;-61
2022/03/21 09:58:58;;;;;;;5.05;3.40;;;22.10;34.70;;;;;;4959587;28;20130;-60
2022/03/21 10:01:26;;;;;;;6.65;3.30;;;22.20;34.50;;;;;;4958116;28;20054;-61
2022/03/21 10:03:54;;;;;;;5.03;2.85;;;22.20;34.40;;;;;;4953889;28;20038;-61
2022/03/21 10:06:33;;;;;;;4.03;2.63;;;22.20;35.00;;;;;;4956604;28;20071;-61
2022/03/21 10:09:12;;;;;;;5.18;3.22;;;22.20;34.30;;;;;;4952808;28;20141;-59
2022/03/21 10:11:41;;;;;;;3.03;2.10;;;22.30;34.40;;;;;;4965268;28;20078;-60
2022/03/21 10:14:26;;;;;;;8.43;2.75;;;22.20;34.30;;;;;;4956280;28;20142;-60
2022/03/21 10:16:55;;;;;;;4.78;2.78;;;22.30;34.30;;;;;;4959900;28;20047;-60
2022/03/21 10:19:23;;;;;;;3.30;2.88;;;22.30;34.30;;;;;;4965981;28;20057;-61
2022/03/21 10:22:06;;;;;;;3.50;2.03;;;22.30;34.30;;;;;;4952164;28;20054;-60
2022/03/21 10:24:38;;;;;;;6.90;3.50;;;22.40;34.30;;;;;;4951869;28;20050;-61
2022/03/21 10:27:07;;;;;;;2.28;2.03;;;22.40;34.30;;;;;;4948690;28;20075;-60
2022/03/21 10:29:51;;;;;;;1.88;1.52;;;22.40;34.30;;;;;;4951248;28;20075;-60
2022/03/21 10:32:32;;;;;;;4.25;2.75;;;22.50;34.20;;;;;;4965773;28;20445;-60
2022/03/21 10:35:01;;;;;;;3.47;2.58;;;22.50;34.20;;;;;;4957342;28;20513;-60
2022/03/21 10:37:42;;;;;;;4.63;2.38;;;22.50;34.20;;;;;;4956650;28;20050;-60
2022/03/21 10:40:22;;;;;;;3.17;2.53;;;22.60;34.20;;;;;;4954124;28;20042;-60
2022/03/21 10:42:56;;;;;;;5.47;2.45;;;22.60;34.20;;;;;;4954120;28;20055;-60
2022/03/21 10:45:39;;;;;;;3.55;1.73;;;22.60;34.20;;;;;;4966034;28;21135;-60
2022/03/21 10:48:08;;;;;;;2.63;2.20;;;22.60;34.10;;;;;;4955616;28;20098;-61
2022/03/21 10:50:37;;;;;;;2.15;1.60;;;22.60;34.10;;;;;;4954531;28;20691;-61
2022/03/21 10:53:07;;;;;;;4.07;1.83;;;22.70;34.10;;;;;;4945950;28;20134;-60
2022/03/21 10:55:35;;;;;;;3.17;2.60;;;22.70;34.00;;;;;;4957020;28;20137;-60
2022/03/21 10:58:04;;;;;;;3.95;2.50;;;22.80;34.00;;;;;;4959985;28;20065;-60
2022/03/21 11:00:31;;;;;;;4.68;2.45;;;22.80;33.90;;;;;;4950506;28;20085;-60
2022/03/21 11:03:03;;;;;;;3.88;1.65;;;22.80;33.90;;;;;;4964994;28;20055;-60
2022/03/21 11:05:31;;;;;;;2.38;1.95;;;22.90;33.90;;;;;;4955149;28;20043;-61
2022/03/21 11:07:58;;;;;;;1.58;1.15;;;22.90;33.80;;;;;;4953969;28;20046;-60
2022/03/21 11:10:27;;;;;;;1.17;1.17;;;23.00;33.80;;;;;;4960171;28;20121;-62
2022/03/21 11:12:56;;;;;;;2.80;2.22;;;23.00;33.80;;;;;;4954516;28;20069;-61
2022/03/21 11:15:24;;;;;;;1.60;1.50;;;23.10;33.80;;;;;;4950575;28;20126;-61
2022/03/21 11:17:53;;;;;;;1.25;1.20;;;23.10;33.70;;;;;;4956985;28;20526;-61
2022/03/21 11:20:20;;;;;;;3.40;1.65;;;23.10;33.70;;;;;;4962140;28;20057;-60
2022/03/21 11:22:48;;;;;;;2.58;1.52;;;23.20;33.70;;;;;;4962156;28;20133;-60
2022/03/21 11:25:17;;;;;;;2.42;1.70;;;23.20;33.60;;;;;;4959051;28;20051;-60
2022/03/21 11:28:17;;;;;;;1.35;1.27;;;23.30;33.70;;;;;;4961575;28;20523;-60
2022/03/21 11:30:57;;;;;;;3.63;1.02;;;23.30;33.60;;;;;;4948443;28;20146;-61
2022/03/21 11:33:36;;;;;;;1.90;1.30;;;23.40;33.60;;;;;;4955593;28;20101;-61
2022/03/21 11:36:07;;;;;;;1.15;0.65;;;23.40;33.60;;;;;;4962720;28;20047;-61
2022/03/21 11:38:37;;;;;;;3.08;1.13;;;23.50;33.60;;;;;;4957741;28;20054;-60
2022/03/21 11:41:13;;;;;;;1.55;1.02;;;23.50;33.60;;;;;;4957774;28;20043;-60
2022/03/21 11:43:43;;;;;;;1.85;1.20;;;23.60;33.50;;;;;;4959466;28;20062;-59
2022/03/21 11:46:29;;;;;;;0.73;0.73;;;23.60;33.50;;;;;;4960943;28;20047;-60
2022/03/21 11:48:58;;;;;;;2.20;1.35;;;23.70;33.50;;;;;;4958199;28;20129;-60
2022/03/21 11:51:44;;;;;;;2.33;1.63;;;23.70;33.50;;;;;;4955653;28;20485;-60
2022/03/21 11:54:27;;;;;;;1.65;0.60;;;23.80;33.40;;;;;;4946680;28;20126;-59
2022/03/21 11:57:01;;;;;;;1.50;0.95;;;23.80;33.30;;;;;;4963949;28;20052;-60
2022/03/21 11:59:49;;;;;;;1.15;0.95;;;23.80;33.30;;;;;;4963360;28;20134;-60
2022/03/21 12:05:54;;;;;;;1.48;0.80;;;23.90;33.20;;;;;;5087287;27;20386;-58
2022/03/21 12:08:48;;;;;;;1.60;0.70;;;24.00;33.30;;;;;;5099967;28;20050;-61
2022/03/21 12:12:01;;;;;;;4.55;0.90;;;24.10;33.20;;;;;;5084455;28;20048;-61
2022/03/21 12:14:43;;;;;;;1.20;0.73;;;24.10;33.10;;;;;;5089078;28;20432;-60
2022/03/21 12:17:28;;;;;;;6.05;1.00;;;24.10;33.20;;;;;;5087954;28;20101;-61
2022/03/21 12:20:01;;;;;;;3.30;0.80;;;24.20;33.20;;;;;;5089509;28;20028;-59
2022/03/21 12:22:40;;;;;;;2.10;0.75;;;24.30;33.20;;;;;;5099183;28;20123;-60
2022/03/21 12:25:14;;;;;;;0.70;0.70;;;24.30;33.10;;;;;;5088532;28;20388;-60
2022/03/21 12:27:43;;;;;;;1.00;0.75;;;24.30;33.10;;;;;;5086960;28;20058;-60
2022/03/21 12:30:34;;;;;;;1.88;0.90;;;24.40;33.00;;;;;;5087194;28;20051;-60
2022/03/21 12:33:19;;;;;;;0.73;0.30;;;24.50;33.00;;;;;;5091655;28;20394;-60
2022/03/21 12:36:05;;;;;;;0.67;0.67;;;24.50;32.90;;;;;;5088541;28;20044;-60
2022/03/21 12:38:37;;;;;;;0.50;0.50;;;24.60;32.90;;;;;;5095009;28;20697;-60
2022/03/21 12:41:08;;;;;;;0.88;0.55;;;24.60;32.90;;;;;;5098044;28;20927;-60
2022/03/21 12:43:49;;;;;;;1.60;0.60;;;24.60;32.80;;;;;;5098792;28;20044;-61
2022/03/21 12:46:20;;;;;;;1.45;0.55;;;24.70;32.80;;;;;;5094726;28;20040;-59
2022/03/21 12:48:50;;;;;;;0.50;0.40;;;24.70;32.70;;;;;;5098649;28;20149;-59
2022/03/21 12:51:27;;;;;;;1.65;1.02;;;24.80;32.70;;;;;;5083895;28;20310;-58
2022/03/21 12:53:57;;;;;;;1.67;1.00;;;24.90;32.70;;;;;;5091206;28;20139;-59
2022/03/21 12:56:27;;;;;;;1.95;0.60;;;24.90;32.70;;;;;;5092400;28;20123;-59
2022/03/21 12:59:00;;;;;;;0.75;0.75;;;25.00;32.60;;;;;;5093769;28;20134;-59
2022/03/21 13:01:27;;;;;;;0.80;0.80;;;25.00;32.60;;;;;;5098149;28;20044;-60
2022/03/21 13:10:32;;;;;;;1.17;0.73;;;25.10;32.50;;;;;;5098006;28;20047;-60
2022/03/21 13:12:35;;;;;;;1.35;0.75;;;25.20;32.40;;;;;;5087943;28;20413;-59
2022/03/21 13:15:05;;;;;;;0.93;0.60;;;25.30;32.40;;;;;;5085150;28;20041;-60
2022/03/21 13:18:01;;;;;;;0.50;0.50;;;25.30;32.30;;;;;;5077287;28;20047;-60
2022/03/21 13:20:32;;;;;;;1.30;0.70;;;25.40;32.20;;;;;;5070953;28;20797;-60
2022/03/21 13:23:02;;;;;;;1.45;0.70;;;25.40;32.20;;;;;;5079500;28;20576;-59
2022/03/21 13:25:34;;;;;;;0.63;0.38;;;25.50;32.20;;;;;;5073009;28;20044;-59
2022/03/21 13:28:14;;;;;;;1.35;0.52;;;25.60;32.20;;;;;;5071937;28;20108;-59
2022/03/21 13:30:56;;;;;;;0.82;0.55;;;25.70;32.10;;;;;;5069840;28;20040;-59